VE525 VVTS-WSSS
Flight info
| Callsign | VE525 |
|---|---|
| Flight time | N/A |
| Altitude | 40000 |
| Route | NIXIV5A NIXIV L643 CN L642 ESPOB/N0474F400 Q801 ESBUM/N0478F390 Q802 ELALO ELALO1B |
| Aircraft | A343/H-SDE2E3FGHIJ4J5M1RWXY/LB1D1 |
Departure
| Time | 2026-05-06 14:17 |
|---|---|
| Airport | Tan Son Nhat International Airport (VVTS) |
Arrival
| Time | N/A |
|---|---|
| Airport | Singapore Changi Airport (WSSS) |
| Time | Latitude | Longitude | Altitude | Speed | Heading |
|---|---|---|---|---|---|
| 2026-05-06 13:39 | 10.81349 | 106.65864 | 41 ft | 0 kts | 95° |
| 2026-05-06 14:02 | 10.81351 | 106.65848 | 39 ft | 2 kts | 90° |
| 2026-05-06 14:03 | 10.81351 | 106.65831 | 39 ft | 2 kts | 86° |
| 2026-05-06 14:03 | 10.81350 | 106.65814 | 38 ft | 2 kts | 80° |
| 2026-05-06 14:03 | 10.81346 | 106.65798 | 37 ft | 2 kts | 67° |
| 2026-05-06 14:03 | 10.81339 | 106.65783 | 38 ft | 0 kts | 39° |
| 2026-05-06 14:05 | 10.81341 | 106.65784 | 38 ft | 2 kts | 40° |
| 2026-05-06 14:05 | 10.81351 | 106.65800 | 38 ft | 3 kts | 60° |
| 2026-05-06 14:05 | 10.81353 | 106.65814 | 39 ft | 0 kts | 99° |
| 2026-05-06 14:06 | 10.81353 | 106.65813 | 39 ft | 2 kts | 99° |
| 2026-05-06 14:06 | 10.81357 | 106.65797 | 40 ft | 2 kts | 110° |
| 2026-05-06 14:06 | 10.81365 | 106.65782 | 39 ft | 2 kts | 155° |
| 2026-05-06 14:06 | 10.81380 | 106.65779 | 42 ft | 2 kts | 188° |
| 2026-05-06 14:07 | 10.81385 | 106.65779 | 41 ft | 0 kts | 189° |
| 2026-05-06 14:08 | 10.81383 | 106.65778 | 41 ft | 2 kts | 189° |
| 2026-05-06 14:09 | 10.81362 | 106.65777 | 39 ft | 4 kts | 184° |
| 2026-05-06 14:09 | 10.81321 | 106.65775 | 54 ft | 7 kts | 179° |
| 2026-05-06 14:09 | 10.81282 | 106.65801 | 41 ft | 6 kts | 118° |
| 2026-05-06 14:09 | 10.81276 | 106.65854 | 41 ft | 9 kts | 92° |
| 2026-05-06 14:10 | 10.81271 | 106.65923 | 41 ft | 11 kts | 96° |
| 2026-05-06 14:10 | 10.81268 | 106.65956 | 41 ft | 0 kts | 96° |
| 2026-05-06 14:10 | 10.81267 | 106.65957 | 41 ft | 1 kts | 96° |
| 2026-05-06 14:10 | 10.81266 | 106.65975 | 41 ft | 4 kts | 95° |
| 2026-05-06 14:11 | 10.81274 | 106.66006 | 41 ft | 5 kts | 56° |
| 2026-05-06 14:11 | 10.81309 | 106.66020 | 41 ft | 7 kts | 7° |
| 2026-05-06 14:11 | 10.81364 | 106.66025 | 41 ft | 9 kts | 5° |
| 2026-05-06 14:11 | 10.81437 | 106.66031 | 41 ft | 12 kts | 5° |
| 2026-05-06 14:12 | 10.81528 | 106.66041 | 41 ft | 14 kts | 6° |
| 2026-05-06 14:12 | 10.81634 | 106.66051 | 41 ft | 16 kts | 5° |
| 2026-05-06 14:12 | 10.81755 | 106.66061 | 41 ft | 19 kts | 5° |
| 2026-05-06 14:12 | 10.81855 | 106.66080 | 40 ft | 11 kts | 33° |
| 2026-05-06 14:13 | 10.81893 | 106.66152 | 40 ft | 13 kts | 67° |
| 2026-05-06 14:13 | 10.81925 | 106.66242 | 41 ft | 14 kts | 69° |
| 2026-05-06 14:13 | 10.81962 | 106.66339 | 41 ft | 16 kts | 69° |
| 2026-05-06 14:13 | 10.82008 | 106.66459 | 39 ft | 20 kts | 69° |
| 2026-05-06 14:14 | 10.82060 | 106.66598 | 38 ft | 22 kts | 69° |
| 2026-05-06 14:14 | 10.82116 | 106.66747 | 37 ft | 23 kts | 69° |
| 2026-05-06 14:14 | 10.82174 | 106.66900 | 37 ft | 22 kts | 69° |
| 2026-05-06 14:14 | 10.82220 | 106.66999 | 40 ft | 12 kts | 41° |
| 2026-05-06 14:15 | 10.82257 | 106.67005 | 40 ft | 0 kts | 353° |
| 2026-05-06 14:15 | 10.82266 | 106.67003 | 39 ft | 3 kts | 348° |
| 2026-05-06 14:15 | 10.82300 | 106.66989 | 39 ft | 7 kts | 329° |
| 2026-05-06 14:15 | 10.82342 | 106.66952 | 39 ft | 8 kts | 327° |
| 2026-05-06 14:16 | 10.82357 | 106.66926 | 39 ft | 4 kts | 272° |
| 2026-05-06 14:16 | 10.82344 | 106.66887 | 39 ft | 17 kts | 251° |
| 2026-05-06 14:16 | 10.82176 | 106.66449 | 37 ft | 116 kts | 249° |
| 2026-05-06 14:16 | 10.81820 | 106.65492 | 44 ft | 191 kts | 249° |
| 2026-05-06 14:17 | 10.81402 | 106.64392 | 691 ft | 206 kts | 248° |
| 2026-05-06 14:17 | 10.80851 | 106.63008 | 1764 ft | 214 kts | 244° |
| 2026-05-06 14:17 | 10.80249 | 106.61618 | 2782 ft | 216 kts | 246° |
| 2026-05-06 14:17 | 10.79712 | 106.60169 | 3626 ft | 221 kts | 249° |
| 2026-05-06 14:18 | 10.79181 | 106.58683 | 4386 ft | 227 kts | 249° |
| 2026-05-06 14:18 | 10.78637 | 106.57192 | 4826 ft | 229 kts | 249° |
| 2026-05-06 14:18 | 10.77937 | 106.55702 | 5036 ft | 232 kts | 235° |
| 2026-05-06 14:18 | 10.76814 | 106.54556 | 5166 ft | 232 kts | 210° |
| 2026-05-06 14:19 | 10.75322 | 106.53964 | 5376 ft | 227 kts | 186° |
| 2026-05-06 14:19 | 10.73783 | 106.53967 | 5565 ft | 224 kts | 170° |
| 2026-05-06 14:19 | 10.72242 | 106.54201 | 5750 ft | 224 kts | 167° |
| 2026-05-06 14:19 | 10.70695 | 106.54463 | 5948 ft | 225 kts | 167° |
| 2026-05-06 14:20 | 10.69158 | 106.54718 | 6147 ft | 226 kts | 168° |
| 2026-05-06 14:20 | 10.67601 | 106.54971 | 6342 ft | 227 kts | 168° |
| 2026-05-06 14:20 | 10.66037 | 106.55220 | 6523 ft | 228 kts | 168° |
| 2026-05-06 14:20 | 10.64465 | 106.55469 | 6699 ft | 228 kts | 168° |
| 2026-05-06 14:21 | 10.62889 | 106.55717 | 6894 ft | 229 kts | 168° |
| 2026-05-06 14:21 | 10.61330 | 106.55962 | 7073 ft | 230 kts | 168° |
| 2026-05-06 14:21 | 10.59726 | 106.56214 | 7269 ft | 230 kts | 168° |
| 2026-05-06 14:21 | 10.58162 | 106.56459 | 7456 ft | 231 kts | 168° |
| 2026-05-06 14:22 | 10.56569 | 106.56709 | 7649 ft | 232 kts | 168° |
| 2026-05-06 14:22 | 10.54972 | 106.56959 | 7830 ft | 232 kts | 168° |
| 2026-05-06 14:22 | 10.53374 | 106.57209 | 8036 ft | 233 kts | 168° |
| 2026-05-06 14:22 | 10.51776 | 106.57460 | 8227 ft | 233 kts | 168° |
| 2026-05-06 14:23 | 10.50172 | 106.57711 | 8415 ft | 234 kts | 168° |
| 2026-05-06 14:23 | 10.48565 | 106.57965 | 8621 ft | 234 kts | 167° |
| 2026-05-06 14:23 | 10.46953 | 106.58221 | 8812 ft | 235 kts | 168° |
| 2026-05-06 14:23 | 10.45333 | 106.58473 | 9010 ft | 236 kts | 168° |
| 2026-05-06 14:24 | 10.43708 | 106.58726 | 9201 ft | 237 kts | 168° |
| 2026-05-06 14:24 | 10.42081 | 106.58980 | 9415 ft | 237 kts | 168° |
| 2026-05-06 14:24 | 10.40443 | 106.59237 | 9619 ft | 238 kts | 168° |
| 2026-05-06 14:24 | 10.38807 | 106.59497 | 9804 ft | 238 kts | 168° |
| 2026-05-06 14:25 | 10.37161 | 106.59750 | 9989 ft | 239 kts | 168° |
| 2026-05-06 14:25 | 10.35511 | 106.60004 | 10170 ft | 240 kts | 168° |
| 2026-05-06 14:25 | 10.33858 | 106.60258 | 10355 ft | 241 kts | 168° |
| 2026-05-06 14:25 | 10.32560 | 106.60459 | 10492 ft | 241 kts | 168° |
| 2026-05-06 14:26 | 10.30898 | 106.60716 | 10679 ft | 242 kts | 168° |
| 2026-05-06 14:26 | 10.29232 | 106.60974 | 10865 ft | 243 kts | 168° |
| 2026-05-06 14:26 | 10.27560 | 106.61233 | 11056 ft | 243 kts | 168° |
| 2026-05-06 14:26 | 10.25880 | 106.61494 | 11242 ft | 244 kts | 168° |
| 2026-05-06 14:27 | 10.24200 | 106.61755 | 11426 ft | 245 kts | 168° |
| 2026-05-06 14:27 | 10.22512 | 106.62017 | 11632 ft | 246 kts | 168° |
| 2026-05-06 14:27 | 10.20833 | 106.62343 | 11810 ft | 246 kts | 163° |
| 2026-05-06 14:27 | 10.19173 | 106.62786 | 12007 ft | 246 kts | 162° |
| 2026-05-06 14:28 | 10.17519 | 106.63254 | 12192 ft | 247 kts | 162° |
| 2026-05-06 14:28 | 10.15861 | 106.63726 | 12397 ft | 248 kts | 162° |
| 2026-05-06 14:28 | 10.14175 | 106.64124 | 12593 ft | 250 kts | 169° |
| 2026-05-06 14:28 | 10.12434 | 106.64241 | 12794 ft | 252 kts | 177° |
| 2026-05-06 14:29 | 10.10673 | 106.64232 | 13002 ft | 253 kts | 179° |
| 2026-05-06 14:29 | 10.08913 | 106.64205 | 13194 ft | 254 kts | 179° |
| 2026-05-06 14:29 | 10.07166 | 106.64179 | 13391 ft | 254 kts | 179° |
| 2026-05-06 14:29 | 10.05971 | 106.64163 | 13527 ft | 255 kts | 179° |
| 2026-05-06 14:30 | 10.03618 | 106.64133 | 13786 ft | 256 kts | 179° |
| 2026-05-06 14:30 | 10.01836 | 106.64111 | 13968 ft | 257 kts | 179° |
| 2026-05-06 14:30 | 10.00628 | 106.64097 | 14088 ft | 257 kts | 179° |
| 2026-05-06 14:30 | 9.98253 | 106.64069 | 14326 ft | 258 kts | 179° |
| 2026-05-06 14:31 | 9.97042 | 106.64055 | 14445 ft | 258 kts | 179° |
| 2026-05-06 14:31 | 9.95240 | 106.64034 | 14636 ft | 259 kts | 179° |
| 2026-05-06 14:31 | 9.93438 | 106.64013 | 14813 ft | 260 kts | 179° |
| 2026-05-06 14:31 | 9.91627 | 106.63992 | 15127 ft | 261 kts | 179° |
| 2026-05-06 14:32 | 9.89793 | 106.63971 | 15810 ft | 265 kts | 179° |
| 2026-05-06 14:32 | 9.87948 | 106.63950 | 16738 ft | 265 kts | 179° |
| 2026-05-06 14:32 | 9.86124 | 106.63929 | 17639 ft | 266 kts | 179° |
| 2026-05-06 14:32 | 9.84262 | 106.63908 | 18442 ft | 269 kts | 179° |
| 2026-05-06 14:33 | 9.82384 | 106.63886 | 19158 ft | 271 kts | 179° |
| 2026-05-06 14:33 | 9.80451 | 106.63864 | 19619 ft | 287 kts | 179° |
| 2026-05-06 14:33 | 9.78387 | 106.63842 | 19931 ft | 306 kts | 179° |
| 2026-05-06 14:33 | 9.76199 | 106.63818 | 20234 ft | 323 kts | 179° |
| 2026-05-06 14:34 | 9.73889 | 106.63791 | 20531 ft | 340 kts | 179° |
| 2026-05-06 14:34 | 9.71461 | 106.63764 | 20825 ft | 357 kts | 179° |
| 2026-05-06 14:34 | 9.68920 | 106.63735 | 21120 ft | 373 kts | 179° |
| 2026-05-06 14:34 | 9.66276 | 106.63704 | 21436 ft | 388 kts | 179° |
| 2026-05-06 14:35 | 9.63528 | 106.63672 | 21744 ft | 402 kts | 179° |
| 2026-05-06 14:35 | 9.61778 | 106.63652 | 21930 ft | 410 kts | 179° |